Main page
METAR-TAF:

METAR-TAF

Airports :

Koksijde Air Base

Koksijde, Belgium

latitude: 51-05N, longitude: 002-39E, elevation: 4 m

Current weather observation

The report was made 14 minutes ago, at 20:55 UTC
Wind 7 kt from the North/Northeast
Temperature 11°C
Humidity 100%
Pressure 1020 hPa
Visibility: 4400 m
mist

METAR: EBFN 202055Z AUTO 03007KT 4400 BR FEW067/// 11/11 Q1020 GRN

Time: 23:09 (21:09 UTC)

Forecast

The report was made 9 hours and 28 minutes ago, at 11:41 UTC
Forecast valid from 20 at 13 UTC to 20 at 22 UTC
Wind 8 kt from the Northeast
Visibility 10 km or more
Few clouds at a height of 2000 ft
Becoming
from 20 at 16 UTC to 20 at 18 UTC
Wind 15 kt from the Northeast
Becoming
from 20 at 20 UTC to 20 at 22 UTC
Wind 18 kt from the East/Northeast
Temporary
from 20 at 18 UTC to 20 at 22 UTC
Visibility: 6000 m

TAF: EBFN 201141Z 2013/2022 04008KT 9999 FEW020 BECMG 2016/2018 04015KT BECMG 2020/2022 07018KT TEMPO 2018/2022 6000

Weather observations and forecasts of more than 4000 airports (METAR and TAF reports).

The available stations are represented by yellow and red dots on the map.

Hover mouse over dot to see the name of the station.

Then click to see weather observations and forecasts.

To change the map : click on the green buttons with a black cross to zoom in, on the green button with a dash to zoom out, or on the green arrows for adjacent maps.


METAR-TAF: